sensor_id;sensor_type;location;lat;lon;timestamp;P1;durP1;ratioP1;P2;durP2;ratioP2
61709;SDS011;47633;51.494;5.386;2023-07-31T00:00:48;10.82;;;3.60;;
61709;SDS011;47633;51.494;5.386;2023-07-31T00:03:13;7.47;;;3.05;;
61709;SDS011;47633;51.494;5.386;2023-07-31T00:05:39;5.93;;;2.80;;
61709;SDS011;47633;51.494;5.386;2023-07-31T00:08:04;5.68;;;2.58;;
61709;SDS011;47633;51.494;5.386;2023-07-31T00:10:29;6.85;;;2.65;;
61709;SDS011;47633;51.494;5.386;2023-07-31T00:12:54;6.72;;;3.22;;
61709;SDS011;47633;51.494;5.386;2023-07-31T00:15:20;8.00;;;3.20;;
61709;SDS011;47633;51.494;5.386;2023-07-31T00:17:45;6.70;;;2.47;;
61709;SDS011;47633;51.494;5.386;2023-07-31T00:20:10;6.50;;;2.78;;
61709;SDS011;47633;51.494;5.386;2023-07-31T00:22:36;7.65;;;3.08;;
61709;SDS011;47633;51.494;5.386;2023-07-31T00:25:01;8.07;;;2.85;;
61709;SDS011;47633;51.494;5.386;2023-07-31T00:27:27;7.85;;;3.13;;
61709;SDS011;47633;51.494;5.386;2023-07-31T00:29:52;6.75;;;2.90;;
61709;SDS011;47633;51.494;5.386;2023-07-31T00:32:17;8.02;;;3.03;;
61709;SDS011;47633;51.494;5.386;2023-07-31T00:34:42;7.00;;;2.85;;
61709;SDS011;47633;51.494;5.386;2023-07-31T00:37:08;7.07;;;3.25;;
61709;SDS011;47633;51.494;5.386;2023-07-31T00:39:34;8.20;;;3.30;;
61709;SDS011;47633;51.494;5.386;2023-07-31T00:41:59;6.32;;;3.00;;
61709;SDS011;47633;51.494;5.386;2023-07-31T00:44:25;7.57;;;3.30;;
61709;SDS011;47633;51.494;5.386;2023-07-31T00:46:50;8.65;;;3.15;;
61709;SDS011;47633;51.494;5.386;2023-07-31T00:49:16;8.73;;;3.55;;
61709;SDS011;47633;51.494;5.386;2023-07-31T00:51:41;7.43;;;3.15;;
61709;SDS011;47633;51.494;5.386;2023-07-31T00:54:07;6.53;;;2.92;;
61709;SDS011;47633;51.494;5.386;2023-07-31T00:56:32;6.85;;;2.85;;
61709;SDS011;47633;51.494;5.386;2023-07-31T00:58:58;7.53;;;2.85;;
61709;SDS011;47633;51.494;5.386;2023-07-31T01:01:23;8.18;;;3.00;;
61709;SDS011;47633;51.494;5.386;2023-07-31T01:03:49;7.07;;;2.85;;
61709;SDS011;47633;51.494;5.386;2023-07-31T01:06:25;8.52;;;3.20;;
61709;SDS011;47633;51.494;5.386;2023-07-31T01:09:04;6.15;;;2.55;;
61709;SDS011;47633;51.494;5.386;2023-07-31T01:11:56;6.45;;;2.67;;
61709;SDS011;47633;51.494;5.386;2023-07-31T01:14:22;8.45;;;3.05;;
61709;SDS011;47633;51.494;5.386;2023-07-31T01:16:47;8.27;;;3.13;;
61709;SDS011;47633;51.494;5.386;2023-07-31T01:19:13;7.38;;;3.05;;
61709;SDS011;47633;51.494;5.386;2023-07-31T01:21:58;6.72;;;2.90;;
61709;SDS011;47633;51.494;5.386;2023-07-31T01:27:44;8.20;;;3.30;;
61709;SDS011;47633;51.494;5.386;2023-07-31T01:30:20;8.30;;;2.75;;
61709;SDS011;47633;51.494;5.386;2023-07-31T01:32:50;8.10;;;2.78;;
61709;SDS011;47633;51.494;5.386;2023-07-31T01:35:17;7.82;;;3.17;;
61709;SDS011;47633;51.494;5.386;2023-07-31T01:37:43;7.55;;;3.13;;
61709;SDS011;47633;51.494;5.386;2023-07-31T01:40:08;6.78;;;2.55;;
61709;SDS011;47633;51.494;5.386;2023-07-31T01:42:33;7.13;;;2.95;;
61709;SDS011;47633;51.494;5.386;2023-07-31T01:44:59;6.90;;;2.58;;
61709;SDS011;47633;51.494;5.386;2023-07-31T01:47:24;6.73;;;2.83;;
61709;SDS011;47633;51.494;5.386;2023-07-31T01:49:49;8.23;;;3.15;;
61709;SDS011;47633;51.494;5.386;2023-07-31T01:52:15;5.50;;;2.90;;
61709;SDS011;47633;51.494;5.386;2023-07-31T01:54:40;7.00;;;2.95;;
61709;SDS011;47633;51.494;5.386;2023-07-31T01:57:05;7.13;;;3.00;;
61709;SDS011;47633;51.494;5.386;2023-07-31T01:59:31;7.80;;;3.17;;
61709;SDS011;47633;51.494;5.386;2023-07-31T02:01:56;7.20;;;2.90;;
61709;SDS011;47633;51.494;5.386;2023-07-31T02:04:21;10.05;;;3.25;;
61709;SDS011;47633;51.494;5.386;2023-07-31T02:06:47;7.18;;;3.03;;
61709;SDS011;47633;51.494;5.386;2023-07-31T02:09:12;7.15;;;2.90;;
61709;SDS011;47633;51.494;5.386;2023-07-31T02:11:37;7.10;;;3.20;;
61709;SDS011;47633;51.494;5.386;2023-07-31T02:14:02;5.43;;;2.58;;
61709;SDS011;47633;51.494;5.386;2023-07-31T02:16:28;6.50;;;2.72;;
61709;SDS011;47633;51.494;5.386;2023-07-31T02:18:53;6.47;;;2.58;;
61709;SDS011;47633;51.494;5.386;2023-07-31T02:21:18;6.75;;;2.75;;
61709;SDS011;47633;51.494;5.386;2023-07-31T02:23:44;6.75;;;3.03;;
61709;SDS011;47633;51.494;5.386;2023-07-31T02:26:09;7.60;;;3.13;;
61709;SDS011;47633;51.494;5.386;2023-07-31T02:28:34;7.57;;;3.30;;
61709;SDS011;47633;51.494;5.386;2023-07-31T02:30:59;8.45;;;3.22;;
61709;SDS011;47633;51.494;5.386;2023-07-31T02:33:25;9.18;;;3.40;;
61709;SDS011;47633;51.494;5.386;2023-07-31T02:35:50;7.13;;;3.60;;
61709;SDS011;47633;51.494;5.386;2023-07-31T02:38:15;6.85;;;3.15;;
61709;SDS011;47633;51.494;5.386;2023-07-31T02:40:41;6.97;;;3.17;;
61709;SDS011;47633;51.494;5.386;2023-07-31T02:43:06;7.70;;;3.15;;
61709;SDS011;47633;51.494;5.386;2023-07-31T02:45:32;7.78;;;3.40;;
61709;SDS011;47633;51.494;5.386;2023-07-31T02:47:57;6.50;;;3.50;;
61709;SDS011;47633;51.494;5.386;2023-07-31T02:50:23;9.43;;;3.38;;
61709;SDS011;47633;51.494;5.386;2023-07-31T02:52:48;6.20;;;3.30;;
61709;SDS011;47633;51.494;5.386;2023-07-31T02:55:13;8.05;;;3.10;;
61709;SDS011;47633;51.494;5.386;2023-07-31T02:57:39;8.27;;;3.50;;
61709;SDS011;47633;51.494;5.386;2023-07-31T03:00:04;6.90;;;3.00;;
61709;SDS011;47633;51.494;5.386;2023-07-31T03:02:31;8.63;;;3.15;;
61709;SDS011;47633;51.494;5.386;2023-07-31T03:04:57;7.97;;;3.33;;
61709;SDS011;47633;51.494;5.386;2023-07-31T03:07:22;7.17;;;3.30;;
61709;SDS011;47633;51.494;5.386;2023-07-31T03:09:47;9.48;;;3.25;;
61709;SDS011;47633;51.494;5.386;2023-07-31T03:12:12;6.57;;;3.28;;
61709;SDS011;47633;51.494;5.386;2023-07-31T03:14:38;8.18;;;3.47;;
61709;SDS011;47633;51.494;5.386;2023-07-31T03:17:03;6.73;;;2.87;;
61709;SDS011;47633;51.494;5.386;2023-07-31T03:19:30;7.80;;;3.50;;
61709;SDS011;47633;51.494;5.386;2023-07-31T03:21:57;7.63;;;3.15;;
61709;SDS011;47633;51.494;5.386;2023-07-31T03:24:22;6.38;;;2.95;;
61709;SDS011;47633;51.494;5.386;2023-07-31T03:26:47;7.10;;;3.33;;
61709;SDS011;47633;51.494;5.386;2023-07-31T03:29:13;7.28;;;3.42;;
61709;SDS011;47633;51.494;5.386;2023-07-31T03:31:38;7.67;;;3.13;;
61709;SDS011;47633;51.494;5.386;2023-07-31T03:34:03;6.47;;;3.13;;
61709;SDS011;47633;51.494;5.386;2023-07-31T03:36:29;8.48;;;3.08;;
61709;SDS011;47633;51.494;5.386;2023-07-31T03:38:54;5.60;;;2.83;;
61709;SDS011;47633;51.494;5.386;2023-07-31T03:41:19;6.68;;;2.90;;
61709;SDS011;47633;51.494;5.386;2023-07-31T03:43:46;7.93;;;3.22;;
61709;SDS011;47633;51.494;5.386;2023-07-31T03:46:16;8.25;;;3.30;;
61709;SDS011;47633;51.494;5.386;2023-07-31T03:48:41;8.60;;;3.55;;
61709;SDS011;47633;51.494;5.386;2023-07-31T03:51:06;8.07;;;3.17;;
61709;SDS011;47633;51.494;5.386;2023-07-31T03:53:32;8.23;;;2.97;;
61709;SDS011;47633;51.494;5.386;2023-07-31T03:55:57;8.63;;;3.33;;
61709;SDS011;47633;51.494;5.386;2023-07-31T03:58:22;8.17;;;2.90;;
61709;SDS011;47633;51.494;5.386;2023-07-31T04:00:47;7.00;;;3.25;;
61709;SDS011;47633;51.494;5.386;2023-07-31T04:03:13;6.93;;;2.95;;
61709;SDS011;47633;51.494;5.386;2023-07-31T04:05:38;6.03;;;3.10;;
61709;SDS011;47633;51.494;5.386;2023-07-31T04:08:04;6.88;;;3.20;;
61709;SDS011;47633;51.494;5.386;2023-07-31T04:10:30;8.25;;;3.38;;
61709;SDS011;47633;51.494;5.386;2023-07-31T04:12:58;7.45;;;3.22;;
61709;SDS011;47633;51.494;5.386;2023-07-31T04:15:25;7.43;;;3.55;;
61709;SDS011;47633;51.494;5.386;2023-07-31T04:17:50;10.13;;;3.20;;
61709;SDS011;47633;51.494;5.386;2023-07-31T04:20:15;7.82;;;3.17;;
61709;SDS011;47633;51.494;5.386;2023-07-31T04:22:41;9.00;;;3.33;;
61709;SDS011;47633;51.494;5.386;2023-07-31T04:25:06;7.07;;;3.30;;
61709;SDS011;47633;51.494;5.386;2023-07-31T04:27:32;7.80;;;3.33;;
61709;SDS011;47633;51.494;5.386;2023-07-31T04:29:57;7.18;;;3.40;;
61709;SDS011;47633;51.494;5.386;2023-07-31T04:32:22;7.20;;;3.20;;
61709;SDS011;47633;51.494;5.386;2023-07-31T04:34:47;6.87;;;2.97;;
61709;SDS011;47633;51.494;5.386;2023-07-31T04:37:13;10.30;;;3.40;;
61709;SDS011;47633;51.494;5.386;2023-07-31T04:39:39;6.57;;;2.80;;
61709;SDS011;47633;51.494;5.386;2023-07-31T04:42:04;7.40;;;3.13;;
61709;SDS011;47633;51.494;5.386;2023-07-31T04:44:29;8.43;;;2.70;;
61709;SDS011;47633;51.494;5.386;2023-07-31T04:46:55;10.63;;;3.08;;
61709;SDS011;47633;51.494;5.386;2023-07-31T04:49:20;6.82;;;2.70;;
61709;SDS011;47633;51.494;5.386;2023-07-31T04:51:46;7.03;;;2.95;;
61709;SDS011;47633;51.494;5.386;2023-07-31T04:54:11;6.90;;;2.78;;
61709;SDS011;47633;51.494;5.386;2023-07-31T04:56:40;7.22;;;2.78;;
61709;SDS011;47633;51.494;5.386;2023-07-31T04:59:06;8.23;;;3.00;;
61709;SDS011;47633;51.494;5.386;2023-07-31T05:01:31;7.70;;;2.97;;
61709;SDS011;47633;51.494;5.386;2023-07-31T05:03:56;8.20;;;2.90;;
61709;SDS011;47633;51.494;5.386;2023-07-31T05:06:22;7.90;;;3.03;;
61709;SDS011;47633;51.494;5.386;2023-07-31T05:08:47;8.60;;;2.90;;
61709;SDS011;47633;51.494;5.386;2023-07-31T05:11:12;6.30;;;2.78;;
61709;SDS011;47633;51.494;5.386;2023-07-31T05:13:37;7.50;;;3.30;;
61709;SDS011;47633;51.494;5.386;2023-07-31T05:16:03;7.40;;;2.90;;
61709;SDS011;47633;51.494;5.386;2023-07-31T05:18:28;8.85;;;3.08;;
61709;SDS011;47633;51.494;5.386;2023-07-31T05:20:54;6.53;;;3.00;;
61709;SDS011;47633;51.494;5.386;2023-07-31T05:23:19;6.18;;;2.85;;
61709;SDS011;47633;51.494;5.386;2023-07-31T05:25:44;6.57;;;2.88;;
61709;SDS011;47633;51.494;5.386;2023-07-31T05:28:10;7.13;;;2.85;;
61709;SDS011;47633;51.494;5.386;2023-07-31T05:30:36;8.60;;;3.15;;
61709;SDS011;47633;51.494;5.386;2023-07-31T05:33:01;5.57;;;2.60;;
61709;SDS011;47633;51.494;5.386;2023-07-31T05:35:27;6.07;;;2.90;;
61709;SDS011;47633;51.494;5.386;2023-07-31T05:37:52;7.87;;;2.93;;
61709;SDS011;47633;51.494;5.386;2023-07-31T05:40:17;6.23;;;2.70;;
61709;SDS011;47633;51.494;5.386;2023-07-31T05:42:42;6.30;;;2.63;;
61709;SDS011;47633;51.494;5.386;2023-07-31T05:45:08;5.88;;;2.75;;
61709;SDS011;47633;51.494;5.386;2023-07-31T05:47:34;5.43;;;2.80;;
61709;SDS011;47633;51.494;5.386;2023-07-31T05:49:59;6.28;;;2.50;;
61709;SDS011;47633;51.494;5.386;2023-07-31T05:52:24;6.53;;;2.90;;
61709;SDS011;47633;51.494;5.386;2023-07-31T05:54:49;4.65;;;2.20;;
61709;SDS011;47633;51.494;5.386;2023-07-31T05:57:15;6.32;;;2.60;;
61709;SDS011;47633;51.494;5.386;2023-07-31T05:59:42;5.18;;;2.35;;
61709;SDS011;47633;51.494;5.386;2023-07-31T06:02:08;4.95;;;2.33;;
61709;SDS011;47633;51.494;5.386;2023-07-31T06:04:33;6.45;;;2.38;;
61709;SDS011;47633;51.494;5.386;2023-07-31T06:06:58;5.18;;;2.38;;
61709;SDS011;47633;51.494;5.386;2023-07-31T06:09:24;6.50;;;2.15;;
61709;SDS011;47633;51.494;5.386;2023-07-31T06:11:50;6.32;;;2.60;;
61709;SDS011;47633;51.494;5.386;2023-07-31T06:14:16;4.55;;;2.15;;
61709;SDS011;47633;51.494;5.386;2023-07-31T06:16:41;6.00;;;2.40;;
61709;SDS011;47633;51.494;5.386;2023-07-31T06:19:06;4.50;;;2.05;;
61709;SDS011;47633;51.494;5.386;2023-07-31T06:21:32;5.30;;;2.00;;
61709;SDS011;47633;51.494;5.386;2023-07-31T06:23:58;4.68;;;2.20;;
61709;SDS011;47633;51.494;5.386;2023-07-31T06:26:23;4.55;;;2.03;;
61709;SDS011;47633;51.494;5.386;2023-07-31T06:28:48;5.07;;;2.20;;
61709;SDS011;47633;51.494;5.386;2023-07-31T06:31:13;5.10;;;2.30;;
61709;SDS011;47633;51.494;5.386;2023-07-31T06:33:39;4.55;;;2.25;;
61709;SDS011;47633;51.494;5.386;2023-07-31T06:36:04;4.80;;;2.00;;
61709;SDS011;47633;51.494;5.386;2023-07-31T06:38:29;6.00;;;2.30;;
61709;SDS011;47633;51.494;5.386;2023-07-31T06:40:55;4.90;;;2.20;;
61709;SDS011;47633;51.494;5.386;2023-07-31T06:43:20;4.78;;;2.20;;
61709;SDS011;47633;51.494;5.386;2023-07-31T06:45:46;4.65;;;1.98;;
61709;SDS011;47633;51.494;5.386;2023-07-31T06:48:13;4.70;;;2.28;;
61709;SDS011;47633;51.494;5.386;2023-07-31T06:50:39;5.15;;;1.90;;
61709;SDS011;47633;51.494;5.386;2023-07-31T06:53:04;5.15;;;2.70;;
61709;SDS011;47633;51.494;5.386;2023-07-31T06:55:29;5.32;;;2.15;;
61709;SDS011;47633;51.494;5.386;2023-07-31T06:57:55;6.03;;;2.63;;
61709;SDS011;47633;51.494;5.386;2023-07-31T07:00:21;4.55;;;2.15;;
61709;SDS011;47633;51.494;5.386;2023-07-31T07:02:48;4.70;;;2.30;;
61709;SDS011;47633;51.494;5.386;2023-07-31T07:05:14;5.35;;;2.00;;
61709;SDS011;47633;51.494;5.386;2023-07-31T07:07:40;5.00;;;2.13;;
61709;SDS011;47633;51.494;5.386;2023-07-31T07:10:07;5.53;;;1.83;;
61709;SDS011;47633;51.494;5.386;2023-07-31T07:12:33;4.97;;;2.22;;
61709;SDS011;47633;51.494;5.386;2023-07-31T07:14:59;5.47;;;1.92;;
61709;SDS011;47633;51.494;5.386;2023-07-31T07:17:25;7.15;;;2.20;;
61709;SDS011;47633;51.494;5.386;2023-07-31T07:19:51;5.68;;;2.30;;
61709;SDS011;47633;51.494;5.386;2023-07-31T07:22:17;4.43;;;2.20;;
61709;SDS011;47633;51.494;5.386;2023-07-31T07:24:43;5.97;;;2.30;;
61709;SDS011;47633;51.494;5.386;2023-07-31T07:27:08;4.55;;;1.90;;
61709;SDS011;47633;51.494;5.386;2023-07-31T07:29:34;4.87;;;2.03;;
61709;SDS011;47633;51.494;5.386;2023-07-31T07:31:59;6.88;;;1.90;;
61709;SDS011;47633;51.494;5.386;2023-07-31T07:34:26;5.22;;;2.33;;
61709;SDS011;47633;51.494;5.386;2023-07-31T07:36:52;4.05;;;2.20;;
61709;SDS011;47633;51.494;5.386;2023-07-31T07:39:17;4.30;;;2.00;;
61709;SDS011;47633;51.494;5.386;2023-07-31T07:41:42;6.93;;;2.15;;
61709;SDS011;47633;51.494;5.386;2023-07-31T07:44:08;5.47;;;1.80;;
61709;SDS011;47633;51.494;5.386;2023-07-31T07:46:33;5.07;;;2.00;;
61709;SDS011;47633;51.494;5.386;2023-07-31T07:48:58;4.45;;;2.00;;
61709;SDS011;47633;51.494;5.386;2023-07-31T07:51:24;4.18;;;2.13;;
61709;SDS011;47633;51.494;5.386;2023-07-31T07:53:49;4.20;;;2.22;;
61709;SDS011;47633;51.494;5.386;2023-07-31T07:56:14;6.40;;;2.00;;
61709;SDS011;47633;51.494;5.386;2023-07-31T07:58:40;5.70;;;2.20;;
61709;SDS011;47633;51.494;5.386;2023-07-31T08:01:05;6.93;;;2.10;;
61709;SDS011;47633;51.494;5.386;2023-07-31T08:03:30;7.28;;;2.47;;
61709;SDS011;47633;51.494;5.386;2023-07-31T08:05:59;4.25;;;2.05;;
61709;SDS011;47633;51.494;5.386;2023-07-31T08:08:25;5.65;;;2.00;;
61709;SDS011;47633;51.494;5.386;2023-07-31T08:10:51;6.65;;;2.00;;
61709;SDS011;47633;51.494;5.386;2023-07-31T08:13:17;4.53;;;2.05;;
61709;SDS011;47633;51.494;5.386;2023-07-31T08:15:42;4.40;;;1.95;;
61709;SDS011;47633;51.494;5.386;2023-07-31T08:18:08;7.53;;;2.30;;
61709;SDS011;47633;51.494;5.386;2023-07-31T08:20:33;5.10;;;2.10;;
61709;SDS011;47633;51.494;5.386;2023-07-31T08:22:59;7.85;;;3.05;;
61709;SDS011;47633;51.494;5.386;2023-07-31T08:25:24;5.85;;;1.95;;
61709;SDS011;47633;51.494;5.386;2023-07-31T08:27:50;8.98;;;2.33;;
61709;SDS011;47633;51.494;5.386;2023-07-31T08:30:18;6.80;;;2.20;;
61709;SDS011;47633;51.494;5.386;2023-07-31T08:32:44;9.40;;;2.30;;
61709;SDS011;47633;51.494;5.386;2023-07-31T08:35:09;5.43;;;2.20;;
61709;SDS011;47633;51.494;5.386;2023-07-31T08:37:35;8.93;;;2.25;;
61709;SDS011;47633;51.494;5.386;2023-07-31T08:40:00;6.40;;;2.20;;
61709;SDS011;47633;51.494;5.386;2023-07-31T08:42:26;5.72;;;2.38;;
61709;SDS011;47633;51.494;5.386;2023-07-31T08:44:52;4.13;;;1.90;;
61709;SDS011;47633;51.494;5.386;2023-07-31T08:47:20;4.70;;;1.98;;
61709;SDS011;47633;51.494;5.386;2023-07-31T08:49:47;5.38;;;2.05;;
61709;SDS011;47633;51.494;5.386;2023-07-31T08:52:13;5.25;;;2.20;;
61709;SDS011;47633;51.494;5.386;2023-07-31T08:54:38;4.32;;;1.88;;
61709;SDS011;47633;51.494;5.386;2023-07-31T08:57:04;8.32;;;2.60;;
61709;SDS011;47633;51.494;5.386;2023-07-31T08:59:31;6.45;;;2.00;;
61709;SDS011;47633;51.494;5.386;2023-07-31T09:02:01;4.93;;;2.08;;
61709;SDS011;47633;51.494;5.386;2023-07-31T09:04:31;4.55;;;2.13;;
61709;SDS011;47633;51.494;5.386;2023-07-31T09:06:59;5.35;;;2.10;;
61709;SDS011;47633;51.494;5.386;2023-07-31T09:09:28;5.03;;;1.92;;
61709;SDS011;47633;51.494;5.386;2023-07-31T09:11:53;5.25;;;2.17;;
61709;SDS011;47633;51.494;5.386;2023-07-31T09:14:19;7.72;;;2.60;;
61709;SDS011;47633;51.494;5.386;2023-07-31T09:16:56;5.00;;;2.03;;
61709;SDS011;47633;51.494;5.386;2023-07-31T09:19:27;5.05;;;2.20;;
61709;SDS011;47633;51.494;5.386;2023-07-31T09:21:55;7.90;;;2.17;;
61709;SDS011;47633;51.494;5.386;2023-07-31T09:24:30;5.20;;;2.10;;
61709;SDS011;47633;51.494;5.386;2023-07-31T09:26:58;7.35;;;2.30;;
61709;SDS011;47633;51.494;5.386;2023-07-31T09:29:24;5.68;;;2.30;;
61709;SDS011;47633;51.494;5.386;2023-07-31T09:31:51;8.65;;;2.58;;
61709;SDS011;47633;51.494;5.386;2023-07-31T09:34:17;6.15;;;2.30;;
61709;SDS011;47633;51.494;5.386;2023-07-31T09:36:43;6.20;;;2.22;;
61709;SDS011;47633;51.494;5.386;2023-07-31T09:39:12;7.57;;;2.30;;
61709;SDS011;47633;51.494;5.386;2023-07-31T09:41:39;8.80;;;2.20;;
61709;SDS011;47633;51.494;5.386;2023-07-31T09:44:07;4.32;;;2.13;;
61709;SDS011;47633;51.494;5.386;2023-07-31T09:46:34;5.75;;;2.20;;
61709;SDS011;47633;51.494;5.386;2023-07-31T09:51:31;6.28;;;2.60;;
61709;SDS011;47633;51.494;5.386;2023-07-31T09:53:57;6.13;;;2.38;;
61709;SDS011;47633;51.494;5.386;2023-07-31T09:56:22;4.97;;;2.30;;
61709;SDS011;47633;51.494;5.386;2023-07-31T09:58:48;5.18;;;2.50;;
61709;SDS011;47633;51.494;5.386;2023-07-31T10:01:15;6.82;;;2.15;;
61709;SDS011;47633;51.494;5.386;2023-07-31T10:03:40;6.93;;;2.25;;
61709;SDS011;47633;51.494;5.386;2023-07-31T10:06:11;5.13;;;2.25;;
61709;SDS011;47633;51.494;5.386;2023-07-31T10:08:38;5.00;;;2.15;;
61709;SDS011;47633;51.494;5.386;2023-07-31T10:11:04;7.80;;;2.22;;
61709;SDS011;47633;51.494;5.386;2023-07-31T10:13:32;10.75;;;2.35;;
61709;SDS011;47633;51.494;5.386;2023-07-31T10:15:59;5.63;;;2.70;;
61709;SDS011;47633;51.494;5.386;2023-07-31T10:18:26;6.18;;;2.60;;
61709;SDS011;47633;51.494;5.386;2023-07-31T10:20:51;5.55;;;2.03;;
61709;SDS011;47633;51.494;5.386;2023-07-31T10:23:17;6.95;;;2.40;;
61709;SDS011;47633;51.494;5.386;2023-07-31T10:25:43;5.15;;;2.22;;
61709;SDS011;47633;51.494;5.386;2023-07-31T10:28:09;4.50;;;2.22;;
61709;SDS011;47633;51.494;5.386;2023-07-31T10:30:36;6.88;;;2.20;;
61709;SDS011;47633;51.494;5.386;2023-07-31T10:33:04;4.28;;;2.20;;
61709;SDS011;47633;51.494;5.386;2023-07-31T10:35:31;5.53;;;2.13;;
61709;SDS011;47633;51.494;5.386;2023-07-31T10:38:03;5.10;;;2.30;;
61709;SDS011;47633;51.494;5.386;2023-07-31T10:40:36;5.38;;;2.17;;
61709;SDS011;47633;51.494;5.386;2023-07-31T10:43:02;5.18;;;2.38;;
61709;SDS011;47633;51.494;5.386;2023-07-31T10:45:34;5.80;;;2.25;;
61709;SDS011;47633;51.494;5.386;2023-07-31T10:48:12;5.32;;;2.22;;
61709;SDS011;47633;51.494;5.386;2023-07-31T10:50:50;6.53;;;2.28;;
61709;SDS011;47633;51.494;5.386;2023-07-31T10:55:59;3.88;;;1.85;;
61709;SDS011;47633;51.494;5.386;2023-07-31T10:58:25;5.75;;;2.30;;
61709;SDS011;47633;51.494;5.386;2023-07-31T11:00:55;6.13;;;2.00;;
61709;SDS011;47633;51.494;5.386;2023-07-31T11:03:24;4.30;;;2.00;;
61709;SDS011;47633;51.494;5.386;2023-07-31T11:08:32;3.65;;;1.88;;
61709;SDS011;47633;51.494;5.386;2023-07-31T11:13:29;5.65;;;2.10;;
61709;SDS011;47633;51.494;5.386;2023-07-31T11:16:06;4.15;;;2.17;;
61709;SDS011;47633;51.494;5.386;2023-07-31T11:18:31;5.15;;;2.33;;
61709;SDS011;47633;51.494;5.386;2023-07-31T11:20:57;6.30;;;1.92;;
61709;SDS011;47633;51.494;5.386;2023-07-31T11:23:22;3.80;;;1.88;;
61709;SDS011;47633;51.494;5.386;2023-07-31T11:25:48;5.93;;;2.08;;
61709;SDS011;47633;51.494;5.386;2023-07-31T11:28:15;4.55;;;2.15;;
61709;SDS011;47633;51.494;5.386;2023-07-31T11:30:42;5.80;;;2.17;;
61709;SDS011;47633;51.494;5.386;2023-07-31T11:33:10;4.45;;;2.05;;
61709;SDS011;47633;51.494;5.386;2023-07-31T11:35:40;4.88;;;2.35;;
61709;SDS011;47633;51.494;5.386;2023-07-31T11:38:26;6.15;;;1.70;;
61709;SDS011;47633;51.494;5.386;2023-07-31T11:40:54;8.02;;;2.92;;
61709;SDS011;47633;51.494;5.386;2023-07-31T11:43:21;5.95;;;2.35;;
61709;SDS011;47633;51.494;5.386;2023-07-31T11:45:48;5.53;;;2.25;;
61709;SDS011;47633;51.494;5.386;2023-07-31T11:48:24;5.03;;;2.00;;
61709;SDS011;47633;51.494;5.386;2023-07-31T11:50:52;8.32;;;2.03;;
61709;SDS011;47633;51.494;5.386;2023-07-31T11:55:57;6.30;;;2.15;;
61709;SDS011;47633;51.494;5.386;2023-07-31T11:58:25;3.83;;;1.77;;
61709;SDS011;47633;51.494;5.386;2023-07-31T12:00:52;4.05;;;2.10;;
61709;SDS011;47633;51.494;5.386;2023-07-31T12:03:18;4.97;;;2.00;;
61709;SDS011;47633;51.494;5.386;2023-07-31T12:05:43;4.45;;;2.00;;
61709;SDS011;47633;51.494;5.386;2023-07-31T12:08:10;7.95;;;2.20;;
61709;SDS011;47633;51.494;5.386;2023-07-31T12:10:40;5.70;;;2.17;;
61709;SDS011;47633;51.494;5.386;2023-07-31T12:13:07;4.82;;;1.98;;
61709;SDS011;47633;51.494;5.386;2023-07-31T12:15:41;6.70;;;2.13;;
61709;SDS011;47633;51.494;5.386;2023-07-31T12:18:18;5.17;;;2.10;;
61709;SDS011;47633;51.494;5.386;2023-07-31T12:20:46;5.10;;;2.40;;
61709;SDS011;47633;51.494;5.386;2023-07-31T12:23:13;4.65;;;1.88;;
61709;SDS011;47633;51.494;5.386;2023-07-31T12:25:43;4.97;;;2.20;;
61709;SDS011;47633;51.494;5.386;2023-07-31T12:28:09;4.07;;;2.10;;
61709;SDS011;47633;51.494;5.386;2023-07-31T12:30:38;10.35;;;2.08;;
61709;SDS011;47633;51.494;5.386;2023-07-31T12:33:05;6.22;;;2.13;;
61709;SDS011;47633;51.494;5.386;2023-07-31T12:35:36;5.85;;;2.15;;
61709;SDS011;47633;51.494;5.386;2023-07-31T12:38:02;5.75;;;2.50;;
61709;SDS011;47633;51.494;5.386;2023-07-31T12:40:28;4.88;;;2.22;;
61709;SDS011;47633;51.494;5.386;2023-07-31T12:42:53;3.88;;;2.10;;
61709;SDS011;47633;51.494;5.386;2023-07-31T12:45:18;6.80;;;2.40;;
61709;SDS011;47633;51.494;5.386;2023-07-31T12:47:44;5.60;;;2.45;;
61709;SDS011;47633;51.494;5.386;2023-07-31T12:50:09;6.40;;;2.35;;
61709;SDS011;47633;51.494;5.386;2023-07-31T12:52:34;4.95;;;2.10;;
61709;SDS011;47633;51.494;5.386;2023-07-31T12:55:00;5.15;;;2.42;;
61709;SDS011;47633;51.494;5.386;2023-07-31T12:57:25;6.43;;;2.00;;
61709;SDS011;47633;51.494;5.386;2023-07-31T12:59:50;4.88;;;2.33;;
61709;SDS011;47633;51.494;5.386;2023-07-31T13:02:16;6.10;;;2.58;;
61709;SDS011;47633;51.494;5.386;2023-07-31T13:04:41;5.32;;;2.25;;
61709;SDS011;47633;51.494;5.386;2023-07-31T13:07:06;6.82;;;2.65;;
61709;SDS011;47633;51.494;5.386;2023-07-31T13:09:32;5.53;;;2.38;;
61709;SDS011;47633;51.494;5.386;2023-07-31T13:11:57;4.80;;;2.40;;
61709;SDS011;47633;51.494;5.386;2023-07-31T13:14:22;5.88;;;2.30;;
61709;SDS011;47633;51.494;5.386;2023-07-31T13:16:48;6.63;;;2.28;;
61709;SDS011;47633;51.494;5.386;2023-07-31T13:19:13;4.90;;;2.38;;
61709;SDS011;47633;51.494;5.386;2023-07-31T13:21:38;5.67;;;2.40;;
61709;SDS011;47633;51.494;5.386;2023-07-31T13:24:05;7.13;;;2.70;;
61709;SDS011;47633;51.494;5.386;2023-07-31T13:26:31;5.38;;;2.58;;
61709;SDS011;47633;51.494;5.386;2023-07-31T13:28:56;5.90;;;2.35;;
61709;SDS011;47633;51.494;5.386;2023-07-31T13:31:21;4.65;;;2.33;;
61709;SDS011;47633;51.494;5.386;2023-07-31T13:33:49;3.90;;;2.03;;
61709;SDS011;47633;51.494;5.386;2023-07-31T13:36:14;7.65;;;3.08;;
61709;SDS011;47633;51.494;5.386;2023-07-31T13:38:39;5.97;;;2.90;;
61709;SDS011;47633;51.494;5.386;2023-07-31T13:41:05;5.32;;;2.63;;
61709;SDS011;47633;51.494;5.386;2023-07-31T13:43:30;5.60;;;2.70;;
61709;SDS011;47633;51.494;5.386;2023-07-31T13:45:56;4.97;;;2.58;;
61709;SDS011;47633;51.494;5.386;2023-07-31T13:48:21;5.63;;;2.80;;
61709;SDS011;47633;51.494;5.386;2023-07-31T13:50:46;6.70;;;2.70;;
61709;SDS011;47633;51.494;5.386;2023-07-31T13:53:12;4.55;;;2.35;;
61709;SDS011;47633;51.494;5.386;2023-07-31T13:55:37;5.13;;;2.80;;
61709;SDS011;47633;51.494;5.386;2023-07-31T13:58:02;5.93;;;2.50;;
61709;SDS011;47633;51.494;5.386;2023-07-31T14:00:28;6.43;;;2.60;;
61709;SDS011;47633;51.494;5.386;2023-07-31T14:02:54;7.20;;;2.90;;
61709;SDS011;47633;51.494;5.386;2023-07-31T14:05:19;8.17;;;3.00;;
61709;SDS011;47633;51.494;5.386;2023-07-31T14:07:44;5.75;;;2.40;;
61709;SDS011;47633;51.494;5.386;2023-07-31T14:10:10;6.07;;;2.90;;
61709;SDS011;47633;51.494;5.386;2023-07-31T14:12:35;6.57;;;2.75;;
61709;SDS011;47633;51.494;5.386;2023-07-31T14:15:00;7.78;;;2.75;;
61709;SDS011;47633;51.494;5.386;2023-07-31T14:17:26;5.38;;;2.55;;
61709;SDS011;47633;51.494;5.386;2023-07-31T14:19:51;5.22;;;2.60;;
61709;SDS011;47633;51.494;5.386;2023-07-31T14:22:26;5.70;;;2.67;;
61709;SDS011;47633;51.494;5.386;2023-07-31T14:24:53;7.63;;;2.78;;
61709;SDS011;47633;51.494;5.386;2023-07-31T14:27:18;5.63;;;2.40;;
61709;SDS011;47633;51.494;5.386;2023-07-31T14:29:44;8.30;;;2.57;;
61709;SDS011;47633;51.494;5.386;2023-07-31T14:32:09;6.73;;;2.40;;
61709;SDS011;47633;51.494;5.386;2023-07-31T14:34:34;6.70;;;2.88;;
61709;SDS011;47633;51.494;5.386;2023-07-31T14:36:59;5.17;;;2.73;;
61709;SDS011;47633;51.494;5.386;2023-07-31T14:39:25;5.55;;;2.50;;
61709;SDS011;47633;51.494;5.386;2023-07-31T14:41:50;7.85;;;2.67;;
61709;SDS011;47633;51.494;5.386;2023-07-31T14:44:15;5.63;;;2.58;;
61709;SDS011;47633;51.494;5.386;2023-07-31T14:46:41;5.55;;;2.50;;
61709;SDS011;47633;51.494;5.386;2023-07-31T14:49:06;7.38;;;3.10;;
61709;SDS011;47633;51.494;5.386;2023-07-31T14:51:31;5.88;;;2.80;;
61709;SDS011;47633;51.494;5.386;2023-07-31T14:53:56;4.95;;;2.70;;
61709;SDS011;47633;51.494;5.386;2023-07-31T14:56:22;9.40;;;2.80;;
61709;SDS011;47633;51.494;5.386;2023-07-31T14:58:47;5.22;;;2.45;;